sensor_id;sensor_type;location;lat;lon;timestamp;P1;durP1;ratioP1;P2;durP2;ratioP2
44728;SDS011;30457;53.590;9.922;2023-04-01T00:04:05;5.43;;;2.38;;
44728;SDS011;30457;53.590;9.922;2023-04-01T00:08:31;3.13;;;2.60;;
44728;SDS011;30457;53.590;9.922;2023-04-01T00:12:56;5.38;;;2.92;;
44728;SDS011;30457;53.590;9.922;2023-04-01T00:17:22;7.32;;;2.90;;
44728;SDS011;30457;53.590;9.922;2023-04-01T00:21:47;4.25;;;2.15;;
44728;SDS011;30457;53.590;9.922;2023-04-01T00:26:13;8.45;;;2.85;;
44728;SDS011;30457;53.590;9.922;2023-04-01T00:30:40;2.55;;;2.10;;
44728;SDS011;30457;53.590;9.922;2023-04-01T00:35:05;5.03;;;2.60;;
44728;SDS011;30457;53.590;9.922;2023-04-01T00:39:31;3.65;;;2.00;;
44728;SDS011;30457;53.590;9.922;2023-04-01T00:44:16;3.47;;;2.55;;
44728;SDS011;30457;53.590;9.922;2023-04-01T00:48:46;4.50;;;2.58;;
44728;SDS011;30457;53.590;9.922;2023-04-01T00:53:17;4.82;;;2.60;;
44728;SDS011;30457;53.590;9.922;2023-04-01T00:57:44;7.30;;;3.03;;
44728;SDS011;30457;53.590;9.922;2023-04-01T01:02:13;8.82;;;3.47;;
44728;SDS011;30457;53.590;9.922;2023-04-01T01:06:46;3.75;;;2.72;;
44728;SDS011;30457;53.590;9.922;2023-04-01T01:11:20;4.10;;;2.58;;
44728;SDS011;30457;53.590;9.922;2023-04-01T01:25:11;4.95;;;3.22;;
44728;SDS011;30457;53.590;9.922;2023-04-01T01:39:40;6.55;;;2.78;;
44728;SDS011;30457;53.590;9.922;2023-04-01T01:44:08;3.67;;;3.05;;
44728;SDS011;30457;53.590;9.922;2023-04-01T01:48:37;5.00;;;2.80;;
44728;SDS011;30457;53.590;9.922;2023-04-01T01:53:05;6.53;;;2.80;;
44728;SDS011;30457;53.590;9.922;2023-04-01T01:57:34;6.43;;;3.53;;
44728;SDS011;30457;53.590;9.922;2023-04-01T02:02:05;5.18;;;2.90;;
44728;SDS011;30457;53.590;9.922;2023-04-01T02:06:34;7.43;;;2.90;;
44728;SDS011;30457;53.590;9.922;2023-04-01T02:11:05;4.80;;;2.60;;
44728;SDS011;30457;53.590;9.922;2023-04-01T02:15:40;3.08;;;2.50;;
44728;SDS011;30457;53.590;9.922;2023-04-01T02:20:11;6.05;;;2.58;;
44728;SDS011;30457;53.590;9.922;2023-04-01T02:24:40;2.78;;;2.50;;
44728;SDS011;30457;53.590;9.922;2023-04-01T02:29:08;6.50;;;2.85;;
44728;SDS011;30457;53.590;9.922;2023-04-01T02:33:37;5.78;;;2.75;;
44728;SDS011;30457;53.590;9.922;2023-04-01T02:38:04;4.30;;;2.97;;
44728;SDS011;30457;53.590;9.922;2023-04-01T02:42:31;4.38;;;2.42;;
44728;SDS011;30457;53.590;9.922;2023-04-01T02:46:56;3.25;;;2.63;;
44728;SDS011;30457;53.590;9.922;2023-04-01T02:51:22;9.15;;;2.63;;
44728;SDS011;30457;53.590;9.922;2023-04-01T02:55:47;4.32;;;2.60;;
44728;SDS011;30457;53.590;9.922;2023-04-01T03:00:15;5.05;;;2.80;;
44728;SDS011;30457;53.590;9.922;2023-04-01T03:04:41;6.90;;;2.75;;
44728;SDS011;30457;53.590;9.922;2023-04-01T03:09:07;6.38;;;3.50;;
44728;SDS011;30457;53.590;9.922;2023-04-01T03:13:33;6.55;;;3.70;;
44728;SDS011;30457;53.590;9.922;2023-04-01T03:17:58;8.52;;;4.55;;
44728;SDS011;30457;53.590;9.922;2023-04-01T03:22:24;5.88;;;4.28;;
44728;SDS011;30457;53.590;9.922;2023-04-01T03:26:50;8.13;;;4.50;;
44728;SDS011;30457;53.590;9.922;2023-04-01T03:31:17;10.32;;;3.97;;
44728;SDS011;30457;53.590;9.922;2023-04-01T03:35:49;7.07;;;4.43;;
44728;SDS011;30457;53.590;9.922;2023-04-01T03:40:17;5.20;;;3.30;;
44728;SDS011;30457;53.590;9.922;2023-04-01T03:44:43;5.05;;;3.30;;
44728;SDS011;30457;53.590;9.922;2023-04-01T03:49:10;4.03;;;2.70;;
44728;SDS011;30457;53.590;9.922;2023-04-01T03:53:36;7.90;;;2.78;;
44728;SDS011;30457;53.590;9.922;2023-04-01T03:58:04;4.40;;;2.75;;
44728;SDS011;30457;53.590;9.922;2023-04-01T04:02:31;7.43;;;3.50;;
44728;SDS011;30457;53.590;9.922;2023-04-01T04:06:57;6.40;;;2.58;;
44728;SDS011;30457;53.590;9.922;2023-04-01T04:11:24;4.40;;;2.50;;
44728;SDS011;30457;53.590;9.922;2023-04-01T04:15:51;4.85;;;3.03;;
44728;SDS011;30457;53.590;9.922;2023-04-01T04:20:17;3.67;;;3.00;;
44728;SDS011;30457;53.590;9.922;2023-04-01T04:24:43;6.25;;;3.05;;
44728;SDS011;30457;53.590;9.922;2023-04-01T04:29:11;3.97;;;2.60;;
44728;SDS011;30457;53.590;9.922;2023-04-01T04:33:37;11.15;;;2.90;;
44728;SDS011;30457;53.590;9.922;2023-04-01T04:38:02;2.90;;;2.40;;
44728;SDS011;30457;53.590;9.922;2023-04-01T04:42:28;7.07;;;2.97;;
44728;SDS011;30457;53.590;9.922;2023-04-01T04:46:59;3.50;;;2.85;;
44728;SDS011;30457;53.590;9.922;2023-04-01T04:51:25;3.72;;;2.83;;
44728;SDS011;30457;53.590;9.922;2023-04-01T04:55:51;4.03;;;2.65;;
44728;SDS011;30457;53.590;9.922;2023-04-01T05:00:33;5.45;;;3.55;;
44728;SDS011;30457;53.590;9.922;2023-04-01T05:05:02;4.18;;;3.05;;
44728;SDS011;30457;53.590;9.922;2023-04-01T05:09:29;3.80;;;3.00;;
44728;SDS011;30457;53.590;9.922;2023-04-01T05:13:55;4.28;;;3.28;;
44728;SDS011;30457;53.590;9.922;2023-04-01T05:18:20;6.50;;;3.20;;
44728;SDS011;30457;53.590;9.922;2023-04-01T05:22:47;1.80;;;1.30;;
44728;SDS011;30457;53.590;9.922;2023-04-01T05:27:12;0.80;;;0.80;;
44728;SDS011;30457;53.590;9.922;2023-04-01T05:31:39;0.40;;;0.40;;
44728;SDS011;30457;53.590;9.922;2023-04-01T05:36:06;2.15;;;0.55;;
44728;SDS011;30457;53.590;9.922;2023-04-01T05:40:36;5.28;;;0.70;;
44728;SDS011;30457;53.590;9.922;2023-04-01T05:45:02;0.30;;;0.30;;
44728;SDS011;30457;53.590;9.922;2023-04-01T05:49:50;0.35;;;0.35;;
44728;SDS011;30457;53.590;9.922;2023-04-01T05:54:16;0.30;;;0.30;;
44728;SDS011;30457;53.590;9.922;2023-04-01T05:58:43;0.70;;;0.50;;
44728;SDS011;30457;53.590;9.922;2023-04-01T06:03:15;3.80;;;0.70;;
44728;SDS011;30457;53.590;9.922;2023-04-01T06:07:40;0.40;;;0.40;;
44728;SDS011;30457;53.590;9.922;2023-04-01T06:22:24;0.95;;;0.50;;
44728;SDS011;30457;53.590;9.922;2023-04-01T06:27:11;0.57;;;0.40;;
44728;SDS011;30457;53.590;9.922;2023-04-01T06:32:11;0.60;;;0.50;;
44728;SDS011;30457;53.590;9.922;2023-04-01T06:46:30;0.45;;;0.32;;
44728;SDS011;30457;53.590;9.922;2023-04-01T06:56:31;0.40;;;0.40;;
44728;SDS011;30457;53.590;9.922;2023-04-01T07:01:07;0.40;;;0.32;;
44728;SDS011;30457;53.590;9.922;2023-04-01T07:05:36;0.63;;;0.40;;
44728;SDS011;30457;53.590;9.922;2023-04-01T07:10:04;0.73;;;0.40;;
44728;SDS011;30457;53.590;9.922;2023-04-01T07:14:54;1.38;;;0.30;;
44728;SDS011;30457;53.590;9.922;2023-04-01T07:24:13;1.80;;;1.15;;
44728;SDS011;30457;53.590;9.922;2023-04-01T07:28:55;2.95;;;1.40;;
44728;SDS011;30457;53.590;9.922;2023-04-01T07:43:12;0.88;;;0.70;;
44728;SDS011;30457;53.590;9.922;2023-04-01T07:48:41;1.60;;;0.40;;
44728;SDS011;30457;53.590;9.922;2023-04-01T07:57:52;0.40;;;0.40;;
44728;SDS011;30457;53.590;9.922;2023-04-01T08:02:34;0.73;;;0.57;;
44728;SDS011;30457;53.590;9.922;2023-04-01T08:12:16;1.00;;;0.60;;
44728;SDS011;30457;53.590;9.922;2023-04-01T08:22:11;0.55;;;0.35;;
44728;SDS011;30457;53.590;9.922;2023-04-01T08:26:44;0.73;;;0.40;;
44728;SDS011;30457;53.590;9.922;2023-04-01T08:31:18;0.50;;;0.50;;
44728;SDS011;30457;53.590;9.922;2023-04-01T08:36:08;0.60;;;0.50;;
44728;SDS011;30457;53.590;9.922;2023-04-01T08:40:46;0.70;;;0.45;;
44728;SDS011;30457;53.590;9.922;2023-04-01T08:45:44;0.80;;;0.50;;
44728;SDS011;30457;53.590;9.922;2023-04-01T08:51:03;0.30;;;0.30;;
44728;SDS011;30457;53.590;9.922;2023-04-01T08:55:42;0.30;;;0.30;;
44728;SDS011;30457;53.590;9.922;2023-04-01T09:10:05;0.40;;;0.40;;
44728;SDS011;30457;53.590;9.922;2023-04-01T09:15:02;0.30;;;0.30;;
44728;SDS011;30457;53.590;9.922;2023-04-01T09:19:48;0.47;;;0.40;;
44728;SDS011;30457;53.590;9.922;2023-04-01T09:44:13;1.60;;;0.60;;
44728;SDS011;30457;53.590;9.922;2023-04-01T09:49:04;0.32;;;0.30;;
44728;SDS011;30457;53.590;9.922;2023-04-01T09:54:06;0.80;;;0.50;;
44728;SDS011;30457;53.590;9.922;2023-04-01T09:59:03;0.40;;;0.40;;
44728;SDS011;30457;53.590;9.922;2023-04-01T10:04:23;0.40;;;0.40;;
44728;SDS011;30457;53.590;9.922;2023-04-01T10:09:21;0.90;;;0.57;;
44728;SDS011;30457;53.590;9.922;2023-04-01T10:18:47;0.77;;;0.38;;
44728;SDS011;30457;53.590;9.922;2023-04-01T10:23:52;0.45;;;0.40;;
44728;SDS011;30457;53.590;9.922;2023-04-01T10:38:25;0.40;;;0.30;;
44728;SDS011;30457;53.590;9.922;2023-04-01T10:48:21;1.55;;;0.50;;
44728;SDS011;30457;53.590;9.922;2023-04-01T10:58:54;0.60;;;0.60;;
44728;SDS011;30457;53.590;9.922;2023-04-01T11:33:11;1.30;;;0.50;;
44728;SDS011;30457;53.590;9.922;2023-04-01T11:37:46;0.65;;;0.65;;
44728;SDS011;30457;53.590;9.922;2023-04-01T12:02:25;1.80;;;0.75;;
44728;SDS011;30457;53.590;9.922;2023-04-01T12:07:19;3.45;;;1.52;;
44728;SDS011;30457;53.590;9.922;2023-04-01T12:12:17;2.47;;;1.38;;
44728;SDS011;30457;53.590;9.922;2023-04-01T12:17:02;2.70;;;1.35;;
44728;SDS011;30457;53.590;9.922;2023-04-01T12:31:02;3.50;;;1.70;;
44728;SDS011;30457;53.590;9.922;2023-04-01T12:45:01;2.63;;;1.63;;
44728;SDS011;30457;53.590;9.922;2023-04-01T12:50:02;2.13;;;1.60;;
44728;SDS011;30457;53.590;9.922;2023-04-01T12:55:17;2.80;;;1.55;;
44728;SDS011;30457;53.590;9.922;2023-04-01T13:05:01;2.03;;;1.50;;
44728;SDS011;30457;53.590;9.922;2023-04-01T13:28:46;2.35;;;1.90;;
44728;SDS011;30457;53.590;9.922;2023-04-01T13:33:38;3.63;;;1.60;;
44728;SDS011;30457;53.590;9.922;2023-04-01T13:38:39;4.40;;;1.48;;
44728;SDS011;30457;53.590;9.922;2023-04-01T13:43:24;2.20;;;1.50;;
44728;SDS011;30457;53.590;9.922;2023-04-01T13:57:33;3.33;;;1.90;;
44728;SDS011;30457;53.590;9.922;2023-04-01T14:06:58;6.18;;;2.05;;
44728;SDS011;30457;53.590;9.922;2023-04-01T14:11:30;5.78;;;2.30;;
44728;SDS011;30457;53.590;9.922;2023-04-01T14:16:47;4.47;;;1.90;;
44728;SDS011;30457;53.590;9.922;2023-04-01T14:35:26;6.32;;;2.38;;
44728;SDS011;30457;53.590;9.922;2023-04-01T14:49:40;4.57;;;2.60;;
44728;SDS011;30457;53.590;9.922;2023-04-01T14:58:41;9.52;;;2.85;;
44728;SDS011;30457;53.590;9.922;2023-04-01T15:03:18;4.70;;;2.28;;
44728;SDS011;30457;53.590;9.922;2023-04-01T15:08:01;3.70;;;2.35;;
44728;SDS011;30457;53.590;9.922;2023-04-01T15:12:40;3.75;;;2.28;;
44728;SDS011;30457;53.590;9.922;2023-04-01T15:17:38;5.28;;;3.30;;
44728;SDS011;30457;53.590;9.922;2023-04-01T15:27:07;3.20;;;2.33;;
44728;SDS011;30457;53.590;9.922;2023-04-01T15:36:35;4.28;;;2.28;;
44728;SDS011;30457;53.590;9.922;2023-04-01T15:41:14;4.25;;;2.50;;
44728;SDS011;30457;53.590;9.922;2023-04-01T15:59:44;6.20;;;3.10;;
44728;SDS011;30457;53.590;9.922;2023-04-01T16:04:28;6.90;;;3.60;;
44728;SDS011;30457;53.590;9.922;2023-04-01T16:09:16;7.60;;;3.97;;
44728;SDS011;30457;53.590;9.922;2023-04-01T16:22:55;6.05;;;3.22;;
44728;SDS011;30457;53.590;9.922;2023-04-01T16:41:33;6.55;;;3.15;;
44728;SDS011;30457;53.590;9.922;2023-04-01T16:51:00;7.15;;;3.25;;
44728;SDS011;30457;53.590;9.922;2023-04-01T17:09:39;6.47;;;2.63;;
44728;SDS011;30457;53.590;9.922;2023-04-01T17:29:23;2.40;;;2.15;;
44728;SDS011;30457;53.590;9.922;2023-04-01T17:34:13;6.30;;;2.25;;
44728;SDS011;30457;53.590;9.922;2023-04-01T17:43:39;5.35;;;2.40;;
44728;SDS011;30457;53.590;9.922;2023-04-01T17:53:08;7.43;;;2.58;;
44728;SDS011;30457;53.590;9.922;2023-04-01T18:07:27;4.05;;;1.75;;
44728;SDS011;30457;53.590;9.922;2023-04-01T18:12:21;3.15;;;1.90;;
44728;SDS011;30457;53.590;9.922;2023-04-01T18:17:08;8.18;;;2.22;;
44728;SDS011;30457;53.590;9.922;2023-04-01T18:21:45;2.70;;;2.08;;
44728;SDS011;30457;53.590;9.922;2023-04-01T18:26:22;5.35;;;2.17;;
44728;SDS011;30457;53.590;9.922;2023-04-01T18:31:34;3.45;;;2.20;;
44728;SDS011;30457;53.590;9.922;2023-04-01T18:40:42;3.67;;;1.98;;
44728;SDS011;30457;53.590;9.922;2023-04-01T18:45:22;6.25;;;2.10;;
44728;SDS011;30457;53.590;9.922;2023-04-01T18:59:34;2.65;;;2.13;;
44728;SDS011;30457;53.590;9.922;2023-04-01T19:04:09;4.47;;;1.73;;
44728;SDS011;30457;53.590;9.922;2023-04-01T19:08:46;2.85;;;1.90;;
44728;SDS011;30457;53.590;9.922;2023-04-01T19:27:52;9.93;;;3.58;;
44728;SDS011;30457;53.590;9.922;2023-04-01T19:37:11;4.28;;;2.03;;
44728;SDS011;30457;53.590;9.922;2023-04-01T19:46:33;5.43;;;2.13;;
44728;SDS011;30457;53.590;9.922;2023-04-01T19:51:24;3.25;;;2.17;;
44728;SDS011;30457;53.590;9.922;2023-04-01T19:56:07;2.55;;;1.88;;
44728;SDS011;30457;53.590;9.922;2023-04-01T20:00:43;6.53;;;2.75;;
44728;SDS011;30457;53.590;9.922;2023-04-01T20:09:54;6.13;;;2.05;;
44728;SDS011;30457;53.590;9.922;2023-04-01T20:14:28;4.47;;;2.03;;
44728;SDS011;30457;53.590;9.922;2023-04-01T20:18:56;4.43;;;1.92;;
44728;SDS011;30457;53.590;9.922;2023-04-01T20:23:35;2.33;;;1.75;;
44728;SDS011;30457;53.590;9.922;2023-04-01T20:28:05;2.50;;;2.17;;
44728;SDS011;30457;53.590;9.922;2023-04-01T20:32:56;3.22;;;1.75;;
44728;SDS011;30457;53.590;9.922;2023-04-01T20:37:37;7.10;;;1.83;;
44728;SDS011;30457;53.590;9.922;2023-04-01T20:46:52;3.67;;;1.88;;
44728;SDS011;30457;53.590;9.922;2023-04-01T20:51:26;4.93;;;1.92;;
44728;SDS011;30457;53.590;9.922;2023-04-01T20:55:58;4.47;;;2.03;;
44728;SDS011;30457;53.590;9.922;2023-04-01T21:00:40;4.18;;;1.58;;
44728;SDS011;30457;53.590;9.922;2023-04-01T21:10:12;4.18;;;1.92;;
44728;SDS011;30457;53.590;9.922;2023-04-01T21:14:51;8.25;;;2.20;;
44728;SDS011;30457;53.590;9.922;2023-04-01T21:28:59;7.28;;;2.25;;
44728;SDS011;30457;53.590;9.922;2023-04-01T21:38:23;5.10;;;1.90;;
44728;SDS011;30457;53.590;9.922;2023-04-01T21:42:55;5.15;;;1.92;;
44728;SDS011;30457;53.590;9.922;2023-04-01T21:48:03;3.22;;;1.88;;
44728;SDS011;30457;53.590;9.922;2023-04-01T21:53:18;4.85;;;1.83;;
44728;SDS011;30457;53.590;9.922;2023-04-01T22:02:41;6.28;;;2.40;;
44728;SDS011;30457;53.590;9.922;2023-04-01T22:11:56;4.20;;;1.30;;
44728;SDS011;30457;53.590;9.922;2023-04-01T22:16:46;3.42;;;1.30;;
44728;SDS011;30457;53.590;9.922;2023-04-01T22:26:09;4.50;;;1.77;;
44728;SDS011;30457;53.590;9.922;2023-04-01T22:30:51;4.47;;;1.38;;
44728;SDS011;30457;53.590;9.922;2023-04-01T22:35:42;4.10;;;1.20;;
44728;SDS011;30457;53.590;9.922;2023-04-01T22:40:22;2.15;;;1.23;;
44728;SDS011;30457;53.590;9.922;2023-04-01T22:49:46;5.75;;;1.17;;
44728;SDS011;30457;53.590;9.922;2023-04-01T22:54:31;3.05;;;1.30;;
44728;SDS011;30457;53.590;9.922;2023-04-01T23:03:47;5.10;;;1.55;;
44728;SDS011;30457;53.590;9.922;2023-04-01T23:13:22;3.17;;;1.00;;
44728;SDS011;30457;53.590;9.922;2023-04-01T23:17:56;3.22;;;1.17;;
44728;SDS011;30457;53.590;9.922;2023-04-01T23:27:03;1.75;;;1.08;;
44728;SDS011;30457;53.590;9.922;2023-04-01T23:31:40;2.90;;;0.90;;
44728;SDS011;30457;53.590;9.922;2023-04-01T23:36:10;3.15;;;1.23;;
44728;SDS011;30457;53.590;9.922;2023-04-01T23:40:39;4.03;;;1.10;;
44728;SDS011;30457;53.590;9.922;2023-04-01T23:45:13;1.95;;;1.00;;
44728;SDS011;30457;53.590;9.922;2023-04-01T23:49:46;2.30;;;0.70;;
44728;SDS011;30457;53.590;9.922;2023-04-01T23:54:18;9.77;;;2.00;;
44728;SDS011;30457;53.590;9.922;2023-04-01T23:58:49;2.90;;;0.80;;
